Etusivu
METAR-TAF:

METAR-TAF

Lentoasemat :

Casper, Wyoming, Yhdysvallat

Leveyspiiri: 42-53-51N, Pituuspiiri: 106-28-23W, korkeus merenpinnasta: 1630 m

Tämänhetkinen sää

Tämä raportti tehtiin 31 minuuttia sitten, kello 20.53 UTC
Tuuli 17 kn lounaasta
Lämpötila 4°C
Kosteus 60%
Ilmanpaine 1022 hPa
Näkyvyys: 16.1 km
selkeää

METAR: KCPR 062053Z 23017KT 10SM CLR 04/M03 A3017 RMK AO2 PK WND 22027/1958 RAE1957 SLP232 P0000 60000 T00441028 55010

Aika: 14:24 (21:24 UTC)

Sääennuste

Tämä raportti tehtiin 3 tuntia ja 47 minuuttia sitten, kello 17.37 UTC
Ennuste voimassa 06. päivästä klo 18 UTC - 07. päivään klo 18 UTC
Tuuli 20 kn lounaasta puuskistuen 30 kn:hen
Näkyvyys: 10 km
Muutamia pilviä 25000 ft:n korkeudessa
From 07. päivästä klo 0000 UTC
Tuuli 18 kn lounaasta puuskistuen 23 kn:hen
Näkyvyys: 10 km
Hajanaisia pilviä 25000 ft:n korkeudessa

TAF: KCPR 061737Z 0618/0718 22020G30KT P6SM FEW250 FM070000 22018G23KT P6SM SCT250

Säähavainnot ja -ennusteet yli 4000 lentoasemalta (METAR- ja TAF-raportit).

Käytössä olevat sääasemat on merkitty karttaan keltaisilla ja punaisilla pisteillä.

Aseta hiiri pisteen päälle nähdäksesi sääaseman nimen.

Klikkaa sitten nähdäksesi säähavainnot ja -ennusteet.

Kartan vaihtaminen: klikkaa mustalla rastilla varustettuja vihreitä pisteitä, niin voit zoomata sisään; viivalla varustettua vihreää pistettä, niin voit zoomata ulos tai vihreitä nuolia, niin pääset viereisille kartoille.


METAR-TAF: